Time;durP1;ratioP1;P1;durP2;ratioP2;P2;SDS_P1;SDS_P2;PMS_P1;PMS_P2;Temp;Humidity;BMP_temperature;BMP_pressure;BME280_temperature;BME280_humidity;BME280_pressure;Samples;Min_cycle;Max_cycle;Signal;HPM_P1;HPM_P2
2020/12/02 00:02:05;;;;;;;1999.90;999.90;;;;;;;1.50;75.52;101839.22;15692732;28;20052;-60
2020/12/02 00:09:37;;;;;;;;;;;;;;;1.68;74.58;101831.63;15671068;28;20041;-57
2020/12/02 00:17:16;;;;;;;1999.90;999.90;;;;;;;1.61;75.30;101828.16;15687784;28;19928;-57
2020/12/02 00:24:50;;;;;;;1999.90;999.90;;;;;;;1.77;73.86;101825.69;15697796;28;20076;-60
2020/12/02 00:32:26;;;;;;;1999.90;999.90;;;;;;;1.51;74.98;101824.38;15747199;28;20421;-57
2020/12/02 00:39:59;;;;;;;1999.90;999.90;;;;;;;1.70;74.44;101825.88;15688361;28;20073;-58
2020/12/02 00:47:32;;;;;;;1999.90;999.90;;;;;;;1.32;75.72;101821.81;15737628;28;20518;-60
2020/12/02 00:55:05;;;;;;;1999.90;999.90;;;;;;;1.84;73.38;101834.63;15746702;28;20036;-57
2020/12/02 01:02:46;;;;;;;1999.90;999.90;;;;;;;1.56;74.88;101829.97;15718690;28;20095;-57
2020/12/02 01:10:18;;;;;;;1999.90;999.90;;;;;;;1.82;72.53;101837.63;15686963;28;20127;-56
2020/12/02 01:18:17;;;;;;;1999.90;999.90;;;;;;;1.62;73.21;101829.84;15682872;28;20376;-58
2020/12/02 01:25:51;;;;;;;1999.90;999.90;;;;;;;1.58;72.77;101828.66;15676218;28;20084;-57
2020/12/02 01:33:25;;;;;;;1999.90;999.90;;;;;;;1.60;71.66;101837.50;15691988;28;20075;-60
2020/12/02 01:40:58;;;;;;;1999.90;999.90;;;;;;;1.63;71.57;101830.66;15744562;28;20448;-59
2020/12/02 01:48:49;;;;;;;1999.90;999.90;;;;;;;1.50;73.24;101840.06;15743250;28;20470;-60
2020/12/02 01:56:34;;;;;;;1999.90;999.90;;;;;;;1.47;72.74;101832.31;15744056;28;20509;-57
2020/12/02 02:04:14;;;;;;;1999.90;999.90;;;;;;;1.51;71.94;101838.97;15742087;28;20036;-56
2020/12/02 02:12:23;;;;;;;1999.90;999.90;;;;;;;1.56;71.90;101838.22;15741732;28;20569;-59
2020/12/02 02:19:59;;;;;;;1999.90;999.90;;;;;;;1.50;72.05;101837.31;15742935;28;20065;-54
2020/12/02 02:27:34;;;;;;;1999.90;999.90;;;;;;;1.11;73.11;101839.81;15741257;28;20036;-55
2020/12/02 02:35:07;;;;;;;1999.90;999.90;;;;;;;1.21;72.74;101811.69;15720035;28;20049;-55
2020/12/02 02:42:45;;;;;;;1999.90;999.90;;;;;;;0.73;75.01;101823.03;15679397;28;20078;-55
2020/12/02 02:50:19;;;;;;;1999.90;999.90;;;;;;;1.09;73.03;101816.41;15679054;28;20345;-57
2020/12/02 02:57:54;;;;;;;1999.90;999.90;;;;;;;1.28;72.00;101822.56;15678024;28;20044;-57
2020/12/02 03:05:27;;;;;;;1999.90;999.90;;;;;;;1.30;71.35;101823.16;15691374;28;20049;-56
2020/12/02 03:13:05;;;;;;;1999.90;999.90;;;;;;;1.13;71.64;101832.16;15690757;28;20313;-54
2020/12/02 03:20:45;;;;;;;1999.90;999.90;;;;;;;1.10;71.14;101823.56;15690350;28;20080;-54
2020/12/02 03:28:20;;;;;;;1999.90;999.90;;;;;;;0.98;71.32;101823.59;15688861;28;20449;-56
2020/12/02 03:35:53;;;;;;;1999.90;999.90;;;;;;;1.12;70.88;101813.16;15717068;28;20090;-56
2020/12/02 03:43:27;;;;;;;1999.90;999.90;;;;;;;1.09;70.97;101813.66;15749895;28;20113;-57
2020/12/02 03:51:00;;;;;;;1999.90;999.90;;;;;;;1.01;70.32;101801.13;15750644;28;20127;-59
2020/12/02 03:58:34;;;;;;;1999.90;999.90;;;;;;;0.95;70.39;101801.28;15748079;28;20045;-55
2020/12/02 04:06:08;;;;;;;1999.90;999.90;;;;;;;0.76;72.10;101784.94;15750191;28;20573;-56
2020/12/02 04:13:43;;;;;;;1999.90;999.90;;;;;;;0.58;72.51;101787.81;15747692;28;20521;-59
2020/12/02 04:21:23;;;;;;;1999.90;999.90;;;;;;;0.72;71.17;101793.88;15751128;28;20044;-56
2020/12/02 04:28:57;;;;;;;1999.90;999.90;;;;;;;0.67;71.74;101786.38;15746917;28;20109;-57
2020/12/02 04:36:29;;;;;;;1999.90;999.90;;;;;;;0.79;72.02;101789.94;15713868;28;20045;-57
2020/12/02 04:44:03;;;;;;;1999.90;999.90;;;;;;;0.66;72.22;101789.38;15684513;28;20127;-57
2020/12/02 04:51:35;;;;;;;1999.90;999.90;;;;;;;0.60;72.00;101779.34;15685122;28;20045;-56
2020/12/02 04:59:09;;;;;;;1999.90;999.90;;;;;;;0.71;72.13;101779.31;15683697;28;20076;-54
2020/12/02 05:06:43;;;;;;;1999.90;999.90;;;;;;;0.29;73.73;101790.47;15683566;28;20075;-59
2020/12/02 05:14:17;;;;;;;1999.90;999.90;;;;;;;0.42;72.75;101775.66;15683322;28;20124;-57
2020/12/02 05:21:50;;;;;;;1999.90;999.90;;;;;;;0.44;73.08;101781.75;15681507;28;20065;-56
2020/12/02 05:29:36;;;;;;;1999.90;999.90;;;;;;;0.17;73.61;101775.91;15682471;28;20056;-58
2020/12/02 05:37:14;;;;;;;1999.90;999.90;;;;;;;0.39;73.89;101773.38;15720661;28;20396;-57
2020/12/02 05:44:51;;;;;;;1999.90;999.90;;;;;;;0.42;74.00;101769.34;15743368;28;20445;-58
2020/12/02 05:52:29;;;;;;;1999.90;999.90;;;;;;;0.19;74.23;101756.44;15742787;28;20052;-56
2020/12/02 06:00:03;;;;;;;1999.90;999.90;;;;;;;0.09;75.16;101757.03;15742522;28;20513;-63
2020/12/02 06:07:47;;;;;;;1999.90;999.90;;;;;;;0.49;72.74;101759.03;15742388;28;20474;-56
2020/12/02 06:15:24;;;;;;;1999.90;999.90;;;;;;;0.45;71.27;101753.22;15742658;28;20063;-57
2020/12/02 06:22:58;;;;;;;1999.90;999.90;;;;;;;0.45;71.76;101747.72;15739652;28;20090;-58
2020/12/02 06:30:31;;;;;;;1999.90;999.90;;;;;;;0.42;72.21;101748.22;15739707;28;20501;-58
2020/12/02 06:38:21;;;;;;;;;;;;;;;0.44;71.15;101746.06;15694570;28;20041;-57
2020/12/02 06:46:01;;;;;;;1999.90;999.90;;;;;;;0.46;71.48;101763.13;15678702;28;19932;-59
2020/12/02 06:53:33;;;;;;;1999.90;999.90;;;;;;;0.35;72.13;101742.00;15677228;28;20399;-57
2020/12/02 07:01:07;;;;;;;1999.90;999.90;;;;;;;0.16;72.11;101746.78;15679097;28;20045;-58
2020/12/02 07:08:40;;;;;;;1999.90;999.90;;;;;;;-0.06;72.72;101741.03;15676812;28;20041;-57
2020/12/02 07:16:20;;;;;;;1999.90;999.90;;;;;;;0.33;72.01;101746.91;15677257;28;20045;-57
2020/12/02 07:23:53;;;;;;;1999.90;999.90;;;;;;;0.52;70.25;101744.81;15677531;28;20095;-59
2020/12/02 07:31:29;;;;;;;1999.90;999.90;;;;;;;0.55;70.76;101747.09;15677225;28;20171;-60
2020/12/02 07:39:11;;;;;;;1999.90;999.90;;;;;;;0.73;69.97;101737.84;15729461;28;20136;-58
2020/12/02 07:46:46;;;;;;;1999.90;999.90;;;;;;;0.62;71.04;101749.72;15724576;28;20144;-56
2020/12/02 07:54:25;;;;;;;1999.90;999.90;;;;;;;0.46;72.12;101745.81;15743378;28;20036;-56
2020/12/02 08:02:17;;;;;;;1999.90;999.90;;;;;;;0.84;71.81;101742.50;15714369;28;20064;-57
2020/12/02 08:09:54;;;;;;;1999.90;999.90;;;;;;;0.96;72.12;101747.97;15733596;28;20045;-57
2020/12/02 08:17:29;;;;;;;1999.90;999.90;;;;;;;1.30;71.07;101736.00;15690999;28;20048;-59
2020/12/02 08:25:24;;;;;;;1999.90;999.90;;;;;;;1.78;70.23;101725.56;15685924;28;20461;-59
2020/12/02 08:33:08;;;;;;;1999.90;999.90;;;;;;;1.68;70.96;101728.97;15747223;28;20040;-56
2020/12/02 08:40:47;;;;;;;1999.90;999.90;;;;;;;1.57;72.83;101718.88;15747336;28;20102;-57
2020/12/02 08:48:20;;;;;;;1999.90;999.90;;;;;;;1.75;71.75;101715.84;15747764;28;20056;-57
2020/12/02 08:55:54;;;;;;;1999.90;999.90;;;;;;;2.26;71.26;101711.97;15747013;28;20523;-61
2020/12/02 09:03:27;;;;;;;1999.90;999.90;;;;;;;2.78;69.86;101717.09;15711682;28;20041;-56
2020/12/02 09:11:00;;;;;;;1999.90;999.90;;;;;;;2.68;69.83;101710.59;15684385;28;20045;-57
2020/12/02 09:18:33;;;;;;;1999.90;999.90;;;;;;;2.67;70.46;101700.69;15666283;28;20045;-57
2020/12/02 09:26:06;;;;;;;1999.90;999.90;;;;;;;2.56;70.91;101696.97;15682068;28;20064;-54
2020/12/02 09:33:40;;;;;;;1999.90;999.90;;;;;;;2.58;71.31;101690.09;15683402;28;20128;-59
2020/12/02 09:41:36;;;;;;;1999.90;999.90;;;;;;;3.01;69.77;101691.16;15683002;28;20562;-57
2020/12/02 09:49:09;;;;;;;1999.90;999.90;;;;;;;3.24;69.79;101670.72;15681091;28;20044;-57
2020/12/02 09:56:44;;;;;;;1999.90;999.90;;;;;;;3.64;68.21;101659.19;15681841;28;20057;-57
2020/12/02 10:04:40;;;;;;;1999.90;999.90;;;;;;;3.81;66.95;101652.72;15723024;28;20340;-60
2020/12/02 10:12:22;;;;;;;1999.90;999.90;;;;;;;3.90;67.97;101651.94;15742159;28;20044;-60
2020/12/02 10:20:20;;;;;;;1999.90;999.90;;;;;;;4.03;68.84;101637.66;15743455;28;20040;-61
2020/12/02 10:28:08;;;;;;;1999.90;999.90;;;;;;;3.63;69.03;101626.34;15742836;28;20052;-61
2020/12/02 10:35:44;;;;;;;1999.90;999.90;;;;;;;4.37;69.01;101617.09;15724914;28;20049;-60
2020/12/02 10:43:27;;;;;;;1999.90;999.90;;;;;;;4.75;66.23;101604.81;15742558;28;20040;-60
2020/12/02 10:51:00;;;;;;;1999.90;999.90;;;;;;;4.04;67.71;101581.31;15740803;28;20044;-62
2020/12/02 10:58:34;;;;;;;1999.90;999.90;;;;;;;4.23;67.34;101573.41;15741898;28;20052;-62
2020/12/02 11:06:25;;;;;;;1999.90;999.90;;;;;;;4.22;67.18;101551.56;15682106;28;20056;-62
2020/12/02 11:14:09;;;;;;;1999.90;999.90;;;;;;;4.03;67.86;101546.53;15678034;28;20037;-62
2020/12/02 11:21:54;;;;;;;1999.90;999.90;;;;;;;4.52;66.52;101524.03;15682535;28;20363;-61
2020/12/02 11:29:27;;;;;;;1999.90;999.90;;;;;;;4.57;66.26;101509.38;15689940;28;20127;-61
2020/12/02 11:37:07;;;;;;;1999.90;999.90;;;;;;;4.72;65.73;101509.44;15690384;28;20421;-62
2020/12/02 11:44:47;;;;;;;1999.90;999.90;;;;;;;4.62;66.25;101501.13;15689996;28;20566;-62
2020/12/02 11:52:29;;;;;;;1999.90;999.90;;;;;;;5.06;64.37;101489.53;15689372;28;20326;-62
2020/12/02 12:00:03;;;;;;;1999.90;999.90;;;;;;;4.72;65.00;101489.25;15694820;28;20044;-62
2020/12/02 12:07:46;;;;;;;1999.90;999.90;;;;;;;4.97;64.38;101482.88;15749929;28;20560;-62
2020/12/02 12:15:30;;;;;;;1999.90;999.90;;;;;;;4.47;65.77;101479.78;15749733;28;20428;-61
2020/12/02 12:23:13;;;;;;;1999.90;999.90;;;;;;;4.98;64.99;101459.63;15748642;28;20045;-62
2020/12/02 12:30:47;;;;;;;1999.90;999.90;;;;;;;5.00;63.75;101454.66;15747160;28;20505;-62
2020/12/02 12:38:25;;;;;;;1999.90;999.90;;;;;;;5.70;62.83;101439.00;15748635;28;20563;-61
2020/12/02 12:46:07;;;;;;;1999.90;999.90;;;;;;;5.42;62.69;101429.44;15746889;28;20041;-62
2020/12/02 12:53:42;;;;;;;1999.90;999.90;;;;;;;6.09;59.78;101425.28;15747810;28;20072;-62
2020/12/02 13:01:18;;;;;;;1999.90;999.90;;;;;;;5.38;62.07;101407.00;15727764;28;20403;-62
2020/12/02 13:09:05;;;;;;;1999.90;999.90;;;;;;;5.13;62.04;101407.06;15684513;28;20045;-62
2020/12/02 13:16:45;;;;;;;1999.90;999.90;;;;;;;5.40;61.15;101387.34;15682766;28;20052;-62
2020/12/02 13:24:30;;;;;;;1999.90;999.90;;;;;;;5.80;60.09;101378.03;15666037;28;20052;-62
2020/12/02 13:32:14;;;;;;;1999.90;999.90;;;;;;;7.05;56.53;101384.03;15682515;28;20106;-61
2020/12/02 13:39:46;;;;;;;1999.90;999.90;;;;;;;5.46;60.57;101369.59;15682731;28;20045;-62
2020/12/02 13:47:20;;;;;;;1999.90;999.90;;;;;;;4.75;63.18;101355.97;15682350;28;20048;-61
2020/12/02 13:55:03;;;;;;;1999.90;999.90;;;;;;;4.91;63.65;101352.91;15680968;28;20123;-61
2020/12/02 14:02:54;;;;;;;1999.90;999.90;;;;;;;4.58;64.82;101351.53;15709389;28;20041;-62
2020/12/02 14:10:27;;;;;;;1999.90;999.90;;;;;;;4.32;65.54;101349.91;15743459;28;20098;-62
2020/12/02 14:18:01;;;;;;;1999.90;999.90;;;;;;;4.02;67.26;101331.38;15741353;28;20048;-61
2020/12/02 14:25:33;;;;;;;;;;;;;;;4.09;67.68;101328.34;15741815;28;20127;-61
2020/12/02 14:33:10;;;;;;;1999.90;999.90;;;;;;;4.02;67.74;101314.81;15742056;28;19966;-60
2020/12/02 14:40:44;;;;;;;1999.90;999.90;;;;;;;3.55;69.35;101315.84;15742278;28;20055;-59
2020/12/02 14:48:18;;;;;;;1999.90;999.90;;;;;;;3.63;69.13;101317.22;15740645;28;20475;-62
2020/12/02 14:55:59;;;;;;;1999.90;999.90;;;;;;;3.61;69.22;101314.72;15745766;28;20119;-62
2020/12/02 15:03:35;;;;;;;1999.90;999.90;;;;;;;3.08;71.00;101313.16;15880223;28;20131;-61
2020/12/02 15:11:10;;;;;;;1999.90;999.90;;;;;;;3.15;70.96;101309.06;15879749;28;20043;-62
2020/12/02 15:18:45;;;;;;;1999.90;999.90;;;;;;;3.17;70.44;101314.31;15879593;28;20048;-61
2020/12/02 15:26:17;;;;;;;1999.90;999.90;;;;;;;2.79;72.33;101299.75;15878677;28;20051;-60
2020/12/02 15:33:51;;;;;;;1999.90;999.90;;;;;;;2.74;72.07;101296.16;15878598;28;20047;-61
2020/12/02 15:41:30;;;;;;;1999.90;999.90;;;;;;;3.24;70.12;101297.53;15860195;28;20058;-61
2020/12/02 15:49:14;;;;;;;1999.90;999.90;;;;;;;3.13;69.62;101303.00;15859420;28;20058;-61
2020/12/02 15:57:12;;;;;;;1999.90;999.90;;;;;;;2.75;71.66;101297.81;15876957;28;20126;-60
2020/12/02 16:04:47;;;;;;;1999.90;999.90;;;;;;;2.43;72.64;101293.22;15877128;28;20135;-61
2020/12/02 16:12:20;;;;;;;1999.90;999.90;;;;;;;2.12;73.52;101286.66;15857658;28;20067;-61
2020/12/02 16:19:55;;;;;;;1999.90;999.90;;;;;;;2.09;74.19;101283.59;15876953;28;20051;-61
2020/12/02 16:27:29;;;;;;;1999.90;999.90;;;;;;;1.98;74.68;101275.25;15875609;28;20137;-61
2020/12/02 16:35:05;;;;;;;1999.90;999.90;;;;;;;1.85;74.85;101252.81;15875454;28;20043;-61
2020/12/02 16:42:48;;;;;;;1999.90;999.90;;;;;;;1.96;74.18;101243.56;15856794;28;20040;-61
2020/12/02 16:50:34;;;;;;;1999.90;999.90;;;;;;;1.84;74.32;101223.63;15874359;28;20044;-60
2020/12/02 16:58:16;;;;;;;1999.90;999.90;;;;;;;1.71;74.53;101225.75;15872575;28;20058;-60
2020/12/02 17:05:51;;;;;;;1999.90;999.90;;;;;;;1.78;74.52;101222.78;15872800;28;20047;-60
2020/12/02 17:14:01;;;;;;;1999.90;999.90;;;;;;;1.81;73.46;101200.25;15873234;28;20039;-60
2020/12/02 17:21:46;;;;;;;1999.90;999.90;;;;;;;1.72;73.68;101191.63;15854432;28;20040;-61
2020/12/02 17:29:38;;;;;;;1999.90;999.90;;;;;;;1.64;73.39;101197.59;15853002;28;20092;-61
2020/12/02 17:37:23;;;;;;;1999.90;999.90;;;;;;;1.61;73.49;101181.63;15852631;28;20052;-62
2020/12/02 17:45:20;;;;;;;1999.90;999.90;;;;;;;1.54;73.85;101182.94;15870628;28;20080;-62
2020/12/02 17:53:17;;;;;;;1999.90;999.90;;;;;;;1.44;74.18;101168.00;15851352;28;20048;-65
2020/12/02 18:00:58;;;;;;;1999.90;999.90;;;;;;;1.52;73.34;101168.63;15846099;28;20070;-62
2020/12/02 18:08:41;;;;;;;1999.90;999.90;;;;;;;1.51;73.06;101155.97;15850548;28;20455;-62
2020/12/02 18:16:17;;;;;;;1999.90;999.90;;;;;;;1.37;74.04;101150.91;15850300;28;20074;-62
2020/12/02 18:24:06;;;;;;;1999.90;999.90;;;;;;;1.54;73.12;101159.00;15868630;28;20035;-62
2020/12/02 18:31:48;;;;;;;1999.90;999.90;;;;;;;1.21;73.62;101154.59;15849453;28;20035;-61
2020/12/02 18:39:41;;;;;;;1999.90;999.90;;;;;;;1.34;72.88;101150.56;15868021;28;20558;-59
2020/12/02 18:47:19;;;;;;;1999.90;999.90;;;;;;;1.18;73.30;101149.63;15849456;28;20050;-62
2020/12/02 18:54:53;;;;;;;1999.90;999.90;;;;;;;0.70;75.16;101145.81;15866781;28;20042;-62
2020/12/02 19:02:28;;;;;;;1999.90;999.90;;;;;;;0.55;75.81;101137.41;15866907;28;20097;-62
2020/12/02 19:10:06;;;;;;;1999.90;999.90;;;;;;;1.10;73.88;101139.91;15866649;28;20093;-62
2020/12/02 19:17:53;;;;;;;1999.90;999.90;;;;;;;1.11;73.19;101146.25;15847015;28;20039;-63
2020/12/02 19:25:37;;;;;;;1999.90;999.90;;;;;;;0.66;74.78;101141.09;15828013;28;20039;-61
2020/12/02 19:33:35;;;;;;;1999.90;999.90;;;;;;;0.76;74.21;101133.78;15862328;28;20101;-60
2020/12/02 19:41:22;;;;;;;1999.90;999.90;;;;;;;0.70;73.51;101131.25;15886104;27;20039;-61
2020/12/02 19:48:58;;;;;;;1999.90;999.90;;;;;;;0.64;74.10;101119.38;15893596;27;20046;-60
2020/12/02 19:56:42;;;;;;;1999.90;999.90;;;;;;;0.78;72.81;101122.53;15873714;27;20138;-61
2020/12/02 21:19:37;;;;;;;1999.90;999.90;;;;;;;0.11;73.67;101055.06;15757857;28;20516;-63
2020/12/02 21:27:18;;;;;;;1999.90;999.90;;;;;;;-0.13;74.29;101057.19;15849193;28;20085;-63
2020/12/02 21:35:09;;;;;;;1999.90;999.90;;;;;;;0.04;72.99;101040.69;15851401;28;20043;-62
2020/12/02 21:43:00;;;;;;;1999.90;999.90;;;;;;;-0.10;74.10;101045.72;15869350;28;20039;-60
2020/12/02 21:50:52;;;;;;;1999.90;999.90;;;;;;;-0.16;74.37;101032.19;15850782;28;20405;-59
2020/12/02 21:58:26;;;;;;;1999.90;999.90;;;;;;;-0.36;74.62;101027.25;15868249;28;20463;-56
2020/12/02 22:06:18;;;;;;;1999.90;999.90;;;;;;;-0.41;74.18;101018.97;15833214;28;20429;-60
2020/12/02 22:14:00;;;;;;;1999.90;999.90;;;;;;;-0.48;74.31;101026.53;15868212;28;20043;-63
2020/12/02 22:22:15;;;;;;;1999.90;999.90;;;;;;;-0.52;74.31;101015.25;15867149;28;20043;-61
2020/12/02 22:29:50;;;;;;;1999.90;999.90;;;;;;;-0.52;74.58;100998.81;15849411;28;20131;-61
2020/12/02 22:37:42;;;;;;;1999.90;999.90;;;;;;;-0.59;74.70;100989.94;15870357;28;20048;-60
2020/12/02 22:45:19;;;;;;;1999.90;999.90;;;;;;;-0.61;74.72;100979.22;15831412;28;20042;-58
2020/12/02 22:52:54;;;;;;;1999.90;999.90;;;;;;;-0.68;75.11;100962.13;15847888;28;20044;-59
2020/12/02 23:00:33;;;;;;;1999.90;999.90;;;;;;;-0.83;76.07;100956.44;15849124;28;20132;-58
2020/12/02 23:08:07;;;;;;;1999.90;999.90;;;;;;;-0.93;76.21;100946.16;15866569;28;20057;-61
2020/12/02 23:15:47;;;;;;;1999.90;999.90;;;;;;;-0.87;76.23;100947.88;15867341;28;20063;-60
2020/12/02 23:23:21;;;;;;;1999.90;999.90;;;;;;;-0.87;77.21;100934.16;15859620;28;20508;-58
2020/12/02 23:31:02;;;;;;;1999.90;999.90;;;;;;;-0.94;78.30;100929.94;15877270;28;20070;-60
2020/12/02 23:38:38;;;;;;;1999.90;999.90;;;;;;;-0.87;77.79;100927.84;15842808;28;20503;-61
2020/12/02 23:46:20;;;;;;;1999.90;999.90;;;;;;;-0.65;77.05;100922.41;15877449;28;20032;-61
2020/12/02 23:53:54;;;;;;;1999.90;999.90;;;;;;;-0.84;77.77;100921.03;15858704;28;20450;-60
